sensor_id;sensor_type;location;lat;lon;timestamp;pressure;altitude;pressure_sealevel;temperature;humidity
44309;BME280;30022;55.846;37.340;2023-04-27T00:00:19;71047.03;;;-143.51;100.00
44309;BME280;30022;55.846;37.340;2023-04-27T00:02:45;72064.53;;;-143.51;100.00
44309;BME280;30022;55.846;37.340;2023-04-27T00:05:10;72064.53;;;-143.51;100.00
44309;BME280;30022;55.846;37.340;2023-04-27T00:07:37;72573.38;;;-143.51;100.00
44309;BME280;30022;55.846;37.340;2023-04-27T00:10:03;71810.13;;;-143.51;100.00
44309;BME280;30022;55.846;37.340;2023-04-27T00:12:29;73336.75;;;-143.51;100.00
44309;BME280;30022;55.846;37.340;2023-04-27T00:14:54;70019.88;;;-143.51;100.00
44309;BME280;30022;55.846;37.340;2023-04-27T00:17:20;61972.69;;;-143.51;100.00
44309;BME280;30022;55.846;37.340;2023-04-27T00:19:46;62519.91;;;-143.51;100.00
44309;BME280;30022;55.846;37.340;2023-04-27T00:22:12;66094.47;;;-143.51;100.00
44309;BME280;30022;55.846;37.340;2023-04-27T00:24:38;66415.97;;;-143.51;100.00
44309;BME280;30022;55.846;37.340;2023-04-27T00:27:06;66918.16;;;-143.51;100.00
44309;BME280;30022;55.846;37.340;2023-04-27T00:29:31;67287.38;;;-143.51;100.00
44309;BME280;30022;55.846;37.340;2023-04-27T00:31:57;68957.22;;;-143.51;100.00
44309;BME280;30022;55.846;37.340;2023-04-27T00:34:22;71555.75;;;-143.51;100.00
44309;BME280;30022;55.846;37.340;2023-04-27T00:36:48;70762.91;;;-143.51;100.00
44309;BME280;30022;55.846;37.340;2023-04-27T00:39:14;70749.00;;;-143.51;100.00
44309;BME280;30022;55.846;37.340;2023-04-27T00:41:39;68989.00;;;-143.51;100.00
44309;BME280;30022;55.846;37.340;2023-04-27T00:44:05;66808.97;;;-143.51;100.00
44309;BME280;30022;55.846;37.340;2023-04-27T00:46:31;68685.16;;;-143.51;100.00
44309;BME280;30022;55.846;37.340;2023-04-27T00:48:57;70447.00;;;-143.51;100.00
44309;BME280;30022;55.846;37.340;2023-04-27T00:51:23;71301.38;;;-143.51;100.00
44309;BME280;30022;55.846;37.340;2023-04-27T00:53:55;71555.75;;;-143.51;100.00
44309;BME280;30022;55.846;37.340;2023-04-27T00:56:21;71810.13;;;-143.51;100.00
44309;BME280;30022;55.846;37.340;2023-04-27T00:58:47;69696.09;;;-143.51;100.00
44309;BME280;30022;55.846;37.340;2023-04-27T01:01:13;72064.53;;;-143.51;100.00
44309;BME280;30022;55.846;37.340;2023-04-27T01:03:39;71301.38;;;-143.51;100.00
44309;BME280;30022;55.846;37.340;2023-04-27T01:06:04;70792.72;;;-143.51;100.00
44309;BME280;30022;55.846;37.340;2023-04-27T01:08:30;71810.13;;;-143.51;100.00
44309;BME280;30022;55.846;37.340;2023-04-27T01:10:56;72827.81;;;-143.51;100.00
44309;BME280;30022;55.846;37.340;2023-04-27T01:13:21;72064.53;;;-143.51;100.00
44309;BME280;30022;55.846;37.340;2023-04-27T01:15:47;71047.03;;;-143.51;100.00
44309;BME280;30022;55.846;37.340;2023-04-27T01:18:13;74100.28;;;-143.51;100.00
44309;BME280;30022;55.846;37.340;2023-04-27T01:20:39;75373.16;;;-143.51;100.00
44309;BME280;30022;55.846;37.340;2023-04-27T01:23:04;74863.94;;;-143.51;100.00
44309;BME280;30022;55.846;37.340;2023-04-27T01:25:30;71047.03;;;-143.51;100.00
44309;BME280;30022;55.846;37.340;2023-04-27T01:27:56;70999.34;;;-143.51;100.00
44309;BME280;30022;55.846;37.340;2023-04-27T01:30:21;70500.66;;;-143.51;100.00
44309;BME280;30022;55.846;37.340;2023-04-27T01:32:47;69396.16;;;-143.51;100.00
44309;BME280;30022;55.846;37.340;2023-04-27T01:35:17;69094.28;;;-143.51;100.00
44309;BME280;30022;55.846;37.340;2023-04-27T01:37:43;71301.38;;;-143.51;100.00
44309;BME280;30022;55.846;37.340;2023-04-27T01:40:08;73591.25;;;-143.51;100.00
44309;BME280;30022;55.846;37.340;2023-04-27T01:42:34;72827.81;;;-143.51;100.00
44309;BME280;30022;55.846;37.340;2023-04-27T01:45:00;72064.53;;;-143.51;100.00
44309;BME280;30022;55.846;37.340;2023-04-27T01:47:26;69545.13;;;-143.51;100.00
44309;BME280;30022;55.846;37.340;2023-04-27T01:49:51;70029.81;;;-143.51;100.00
44309;BME280;30022;55.846;37.340;2023-04-27T01:52:17;68989.00;;;-143.51;100.00
44309;BME280;30022;55.846;37.340;2023-04-27T01:54:43;68750.69;;;-143.51;100.00
44309;BME280;30022;55.846;37.340;2023-04-27T01:57:09;69002.91;;;-143.51;100.00
44309;BME280;30022;55.846;37.340;2023-04-27T01:59:34;68639.50;;;-143.51;100.00
44309;BME280;30022;55.846;37.340;2023-04-27T02:02:00;66479.50;;;-143.51;100.00
44309;BME280;30022;55.846;37.340;2023-04-27T02:04:27;69159.81;;;-143.51;100.00
44309;BME280;30022;55.846;37.340;2023-04-27T02:06:53;68963.19;;;-143.51;100.00
44309;BME280;30022;55.846;37.340;2023-04-27T02:09:19;68691.13;;;-143.51;100.00
44309;BME280;30022;55.846;37.340;2023-04-27T02:11:44;66392.16;;;-143.51;100.00
44309;BME280;30022;55.846;37.340;2023-04-27T02:14:10;60981.56;;;-143.51;100.00
44309;BME280;30022;55.846;37.340;2023-04-27T02:16:57;57397.72;;;-143.51;100.00
44309;BME280;30022;55.846;37.340;2023-04-27T02:19:22;54082.22;;;-143.51;100.00
44309;BME280;30022;55.846;37.340;2023-04-27T02:21:50;53654.88;;;-143.51;100.00
44309;BME280;30022;55.846;37.340;2023-04-27T02:24:16;53935.81;;;-143.51;100.00
44309;BME280;30022;55.846;37.340;2023-04-27T02:26:43;53498.59;;;-143.51;100.00
44309;BME280;30022;55.846;37.340;2023-04-27T02:29:10;56405.75;;;-143.51;100.00
44309;BME280;30022;55.846;37.340;2023-04-27T02:31:35;59132.78;;;-143.51;100.00
44309;BME280;30022;55.846;37.340;2023-04-27T02:34:01;56878.94;;;-143.51;100.00
44309;BME280;30022;55.846;37.340;2023-04-27T02:36:27;53231.53;;;-143.51;100.00
44309;BME280;30022;55.846;37.340;2023-04-27T02:38:53;52608.47;;;-143.51;100.00
44309;BME280;30022;55.846;37.340;2023-04-27T02:41:19;55150.78;;;-143.51;100.00
44309;BME280;30022;55.846;37.340;2023-04-27T02:43:45;58853.44;;;-143.51;100.00
44309;BME280;30022;55.846;37.340;2023-04-27T02:46:11;61960.78;;;-143.51;100.00
44309;BME280;30022;55.846;37.340;2023-04-27T02:48:36;63451.91;;;-143.51;100.00
44309;BME280;30022;55.846;37.340;2023-04-27T02:51:03;63884.28;;;-143.51;100.00
44309;BME280;30022;55.846;37.340;2023-04-27T02:53:29;62448.53;;;-143.51;100.00
44309;BME280;30022;55.846;37.340;2023-04-27T02:55:55;62065.88;;;-143.51;100.00
44309;BME280;30022;55.846;37.340;2023-04-27T02:58:20;62135.25;;;-143.51;100.00
44309;BME280;30022;55.846;37.340;2023-04-27T03:00:46;62942.25;;;-143.51;100.00
44309;BME280;30022;55.846;37.340;2023-04-27T03:03:12;63211.94;;;-143.51;100.00
44309;BME280;30022;55.846;37.340;2023-04-27T03:05:38;59416.06;;;-143.51;100.00
44309;BME280;30022;55.846;37.340;2023-04-27T03:08:04;58649.41;;;-143.51;100.00
44309;BME280;30022;55.846;37.340;2023-04-27T03:10:29;60220.53;;;-143.51;100.00
44309;BME280;30022;55.846;37.340;2023-04-27T03:12:55;60967.69;;;-143.51;100.00
44309;BME280;30022;55.846;37.340;2023-04-27T03:15:20;61261.03;;;-143.51;100.00
44309;BME280;30022;55.846;37.340;2023-04-27T03:17:46;61350.22;;;-143.51;100.00
44309;BME280;30022;55.846;37.340;2023-04-27T03:20:12;60497.97;;;-143.51;100.00
44309;BME280;30022;55.846;37.340;2023-04-27T03:22:38;63154.44;;;-143.51;100.00
44309;BME280;30022;55.846;37.340;2023-04-27T03:25:04;64140.16;;;-143.51;100.00
44309;BME280;30022;55.846;37.340;2023-04-27T03:27:30;59273.44;;;-143.51;100.00
44309;BME280;30022;55.846;37.340;2023-04-27T03:29:56;60143.25;;;-143.51;100.00
44309;BME280;30022;55.846;37.340;2023-04-27T03:32:21;60595.09;;;-143.51;100.00
44309;BME280;30022;55.846;37.340;2023-04-27T03:34:47;61054.91;;;-143.51;100.00
44309;BME280;30022;55.846;37.340;2023-04-27T03:37:12;60947.88;;;-143.51;100.00
44309;BME280;30022;55.846;37.340;2023-04-27T03:39:38;60561.41;;;-143.51;100.00
44309;BME280;30022;55.846;37.340;2023-04-27T03:42:04;60002.56;;;-143.51;100.00
44309;BME280;30022;55.846;37.340;2023-04-27T03:44:29;59451.75;;;-143.51;100.00
44309;BME280;30022;55.846;37.340;2023-04-27T03:46:57;56817.56;;;-143.51;100.00
44309;BME280;30022;55.846;37.340;2023-04-27T03:49:23;58324.56;;;-143.51;100.00
44309;BME280;30022;55.846;37.340;2023-04-27T03:51:49;59356.63;;;-143.51;100.00
44309;BME280;30022;55.846;37.340;2023-04-27T03:54:15;63029.50;;;-143.51;100.00
44309;BME280;30022;55.846;37.340;2023-04-27T03:56:40;64844.41;;;-143.51;100.00
44309;BME280;30022;55.846;37.340;2023-04-27T03:59:06;64538.88;;;-143.51;100.00
44309;BME280;30022;55.846;37.340;2023-04-27T04:01:35;63628.44;;;-143.51;100.00
44309;BME280;30022;55.846;37.340;2023-04-27T04:04:01;61871.59;;;-143.51;100.00
44309;BME280;30022;55.846;37.340;2023-04-27T04:06:27;62837.16;;;-143.51;100.00
44309;BME280;30022;55.846;37.340;2023-04-27T04:08:54;61459.25;;;-143.51;100.00
44309;BME280;30022;55.846;37.340;2023-04-27T04:11:21;60973.63;;;-143.51;100.00
44309;BME280;30022;55.846;37.340;2023-04-27T04:13:48;61893.38;;;-143.51;100.00
44309;BME280;30022;55.846;37.340;2023-04-27T04:16:14;61875.53;;;-143.51;100.00
44309;BME280;30022;55.846;37.340;2023-04-27T04:18:40;62016.31;;;-143.51;100.00
44309;BME280;30022;55.846;37.340;2023-04-27T04:21:05;60880.47;;;-143.51;100.00
44309;BME280;30022;55.846;37.340;2023-04-27T04:23:31;60521.75;;;-143.51;100.00
44309;BME280;30022;55.846;37.340;2023-04-27T04:25:58;57682.88;;;-143.51;100.00
44309;BME280;30022;55.846;37.340;2023-04-27T04:28:28;58702.91;;;-143.51;100.00
44309;BME280;30022;55.846;37.340;2023-04-27T04:30:53;61907.25;;;-143.51;100.00
44309;BME280;30022;55.846;37.340;2023-04-27T04:33:19;64328.59;;;-143.51;100.00
44309;BME280;30022;55.846;37.340;2023-04-27T04:35:45;64110.41;;;-143.51;100.00
44309;BME280;30022;55.846;37.340;2023-04-27T04:38:11;64590.47;;;-143.51;100.00
44309;BME280;30022;55.846;37.340;2023-04-27T04:40:38;64999.16;;;-143.51;100.00
44309;BME280;30022;55.846;37.340;2023-04-27T04:43:03;62999.75;;;-143.51;100.00
44309;BME280;30022;55.846;37.340;2023-04-27T04:45:29;62046.03;;;-143.51;100.00
44309;BME280;30022;55.846;37.340;2023-04-27T04:47:56;58786.09;;;-143.51;100.00
44309;BME280;30022;55.846;37.340;2023-04-27T04:50:22;55740.63;;;-143.51;100.00
44309;BME280;30022;55.846;37.340;2023-04-27T04:52:49;55366.53;;;-143.51;100.00
44309;BME280;30022;55.846;37.340;2023-04-27T04:55:15;54687.72;;;-143.51;100.00
44309;BME280;30022;55.846;37.340;2023-04-27T04:57:40;57227.41;;;-143.51;100.00
44309;BME280;30022;55.846;37.340;2023-04-27T05:00:06;54954.88;;;-143.51;100.00
44309;BME280;30022;55.846;37.340;2023-04-27T05:02:37;51160.97;;;-143.51;100.00
44309;BME280;30022;55.846;37.340;2023-04-27T05:05:02;55807.91;;;-143.51;100.00
44309;BME280;30022;55.846;37.340;2023-04-27T05:07:28;54521.50;;;-143.51;100.00
44309;BME280;30022;55.846;37.340;2023-04-27T05:09:54;52452.22;;;-143.51;100.00
44309;BME280;30022;55.846;37.340;2023-04-27T05:12:20;51506.97;;;-143.51;100.00
44309;BME280;30022;55.846;37.340;2023-04-27T05:14:45;54418.59;;;-143.51;100.00
44309;BME280;30022;55.846;37.340;2023-04-27T05:17:11;50478.91;;;-143.51;100.00
44309;BME280;30022;55.846;37.340;2023-04-27T05:19:37;51429.84;;;-143.51;100.00
44309;BME280;30022;55.846;37.340;2023-04-27T05:22:03;52139.75;;;-143.51;100.00
44309;BME280;30022;55.846;37.340;2023-04-27T05:24:28;51416.00;;;-143.51;100.00
44309;BME280;30022;55.846;37.340;2023-04-27T05:26:54;50297.06;;;-143.51;100.00
44309;BME280;30022;55.846;37.340;2023-04-27T05:29:20;51075.94;;;-143.51;100.00
44309;BME280;30022;55.846;37.340;2023-04-27T05:31:46;52630.22;;;-143.51;100.00
44309;BME280;30022;55.846;37.340;2023-04-27T05:34:11;50935.56;;;-143.51;100.00
44309;BME280;30022;55.846;37.340;2023-04-27T05:36:37;51024.53;;;-143.51;100.00
44309;BME280;30022;55.846;37.340;2023-04-27T05:39:03;50216.00;;;-143.51;100.00
44309;BME280;30022;55.846;37.340;2023-04-27T05:41:29;50142.88;;;-143.51;100.00
44309;BME280;30022;55.846;37.340;2023-04-27T05:43:55;50941.50;;;-143.51;100.00
44309;BME280;30022;55.846;37.340;2023-04-27T05:46:20;53379.91;;;-143.51;100.00
44309;BME280;30022;55.846;37.340;2023-04-27T05:48:46;50289.16;;;-143.51;100.00
44309;BME280;30022;55.846;37.340;2023-04-27T05:51:12;49775.25;;;-143.51;100.00
44309;BME280;30022;55.846;37.340;2023-04-27T05:53:37;50040.09;;;-143.51;100.00
44309;BME280;30022;55.846;37.340;2023-04-27T05:56:03;48842.50;;;-143.51;100.00
44309;BME280;30022;55.846;37.340;2023-04-27T05:58:31;48000.81;;;-143.51;100.00
44309;BME280;30022;55.846;37.340;2023-04-27T06:00:57;49048.00;;;-143.51;100.00
44309;BME280;30022;55.846;37.340;2023-04-27T06:03:23;48419.66;;;-143.51;100.00
44309;BME280;30022;55.846;37.340;2023-04-27T06:05:52;48763.44;;;-143.51;100.00
44309;BME280;30022;55.846;37.340;2023-04-27T06:08:18;48899.78;;;-143.51;100.00
44309;BME280;30022;55.846;37.340;2023-04-27T06:10:44;48546.09;;;-143.51;100.00
44309;BME280;30022;55.846;37.340;2023-04-27T06:13:09;48139.13;;;-143.51;100.00
44309;BME280;30022;55.846;37.340;2023-04-27T06:15:35;48301.13;;;-143.51;100.00
44309;BME280;30022;55.846;37.340;2023-04-27T06:18:01;48228.00;;;-143.51;100.00
44309;BME280;30022;55.846;37.340;2023-04-27T06:20:27;47904.03;;;-143.51;100.00
44309;BME280;30022;55.846;37.340;2023-04-27T06:22:52;47625.50;;;-143.51;100.00
44309;BME280;30022;55.846;37.340;2023-04-27T06:25:18;47597.84;;;-143.51;100.00
44309;BME280;30022;55.846;37.340;2023-04-27T06:27:44;47751.91;;;-143.51;100.00
44309;BME280;30022;55.846;37.340;2023-04-27T06:30:09;47463.50;;;-143.51;100.00
44309;BME280;30022;55.846;37.340;2023-04-27T06:32:35;47613.63;;;-143.51;100.00
44309;BME280;30022;55.846;37.340;2023-04-27T06:35:01;47495.13;;;-143.51;100.00
44309;BME280;30022;55.846;37.340;2023-04-27T06:37:27;47277.84;;;-143.51;100.00
44309;BME280;30022;55.846;37.340;2023-04-27T06:39:53;47285.75;;;-143.51;100.00
44309;BME280;30022;55.846;37.340;2023-04-27T06:42:18;47309.44;;;-143.51;100.00
44309;BME280;30022;55.846;37.340;2023-04-27T06:44:44;47382.53;;;-143.51;100.00
44309;BME280;30022;55.846;37.340;2023-04-27T06:47:10;47520.78;;;-143.51;100.00
44309;BME280;30022;55.846;37.340;2023-04-27T06:49:35;47040.84;;;-143.51;100.00
44309;BME280;30022;55.846;37.340;2023-04-27T06:52:01;47100.09;;;-143.51;100.00
44309;BME280;30022;55.846;37.340;2023-04-27T06:54:27;47096.13;;;-143.51;100.00
44309;BME280;30022;55.846;37.340;2023-04-27T06:56:52;47129.72;;;-143.51;100.00
44309;BME280;30022;55.846;37.340;2023-04-27T06:59:19;47094.16;;;-143.51;100.00
44309;BME280;30022;55.846;37.340;2023-04-27T07:01:44;47068.47;;;-143.51;100.00
44309;BME280;30022;55.846;37.340;2023-04-27T07:04:10;46926.28;;;-143.51;100.00
44309;BME280;30022;55.846;37.340;2023-04-27T07:06:36;47013.19;;;-143.51;100.00
44309;BME280;30022;55.846;37.340;2023-04-27T07:09:01;47044.78;;;-143.51;100.00
44309;BME280;30022;55.846;37.340;2023-04-27T07:11:30;46977.63;;;-143.51;100.00
44309;BME280;30022;55.846;37.340;2023-04-27T07:13:55;47023.06;;;-143.51;100.00
44309;BME280;30022;55.846;37.340;2023-04-27T07:16:21;47060.59;;;-143.51;100.00
44309;BME280;30022;55.846;37.340;2023-04-27T07:18:46;46985.53;;;-143.51;100.00
44309;BME280;30022;55.846;37.340;2023-04-27T07:21:12;46953.94;;;-143.51;100.00
44309;BME280;30022;55.846;37.340;2023-04-27T07:23:38;46938.13;;;-143.51;100.00
44309;BME280;30022;55.846;37.340;2023-04-27T07:26:04;46926.28;;;-143.51;100.00
44309;BME280;30022;55.846;37.340;2023-04-27T07:28:30;46918.38;;;-143.51;100.00
44309;BME280;30022;55.846;37.340;2023-04-27T07:30:55;46872.97;;;-143.51;100.00
44309;BME280;30022;55.846;37.340;2023-04-27T07:33:22;46904.56;;;-143.51;100.00
44309;BME280;30022;55.846;37.340;2023-04-27T07:35:47;46882.84;;;-143.51;100.00
44309;BME280;30022;55.846;37.340;2023-04-27T07:38:14;46863.09;;;-143.51;100.00
44309;BME280;30022;55.846;37.340;2023-04-27T07:40:41;46886.78;;;-143.51;99.79
44309;BME280;30022;55.846;37.340;2023-04-27T07:43:07;46904.56;;;-143.51;100.00
44309;BME280;30022;55.846;37.340;2023-04-27T07:45:33;46904.56;;;-143.51;100.00
44309;BME280;30022;55.846;37.340;2023-04-27T07:48:03;46876.91;;;-143.51;100.00
44309;BME280;30022;55.846;37.340;2023-04-27T07:50:29;46904.56;;;-143.51;100.00
44309;BME280;30022;55.846;37.340;2023-04-27T07:52:55;46890.72;;;-143.51;97.69
44309;BME280;30022;55.846;37.340;2023-04-27T07:55:21;46918.38;;;-143.51;93.26
44309;BME280;30022;55.846;37.340;2023-04-27T07:57:54;46908.50;;;-143.51;95.35
44309;BME280;30022;55.846;37.340;2023-04-27T08:00:20;46920.34;;;-143.51;97.17
44309;BME280;30022;55.846;37.340;2023-04-27T08:02:46;46922.34;;;-143.51;94.61
44309;BME280;30022;55.846;37.340;2023-04-27T08:05:12;46902.59;;;-143.51;92.50
44309;BME280;30022;55.846;37.340;2023-04-27T08:07:39;46908.50;;;-143.51;95.45
44309;BME280;30022;55.846;37.340;2023-04-27T08:10:05;46914.44;;;-143.51;91.06
44309;BME280;30022;55.846;37.340;2023-04-27T08:12:31;46910.47;;;-143.51;92.45
44309;BME280;30022;55.846;37.340;2023-04-27T08:14:57;46918.38;;;-143.51;89.98
44309;BME280;30022;55.846;37.340;2023-04-27T08:17:23;46946.03;;;-143.51;90.77
44309;BME280;30022;55.846;37.340;2023-04-27T08:19:48;46914.44;;;-143.51;90.80
44309;BME280;30022;55.846;37.340;2023-04-27T08:22:14;46914.44;;;-143.51;90.11
44309;BME280;30022;55.846;37.340;2023-04-27T08:24:40;46951.97;;;-143.51;88.75
44309;BME280;30022;55.846;37.340;2023-04-27T08:27:05;46938.13;;;-143.51;93.29
44309;BME280;30022;55.846;37.340;2023-04-27T08:29:31;46944.06;;;-143.51;87.92
44309;BME280;30022;55.846;37.340;2023-04-27T08:31:58;46948.00;;;-143.51;92.20
44309;BME280;30022;55.846;37.340;2023-04-27T08:34:24;46934.19;;;-143.51;88.49
44309;BME280;30022;55.846;37.340;2023-04-27T08:36:50;46938.13;;;-143.51;87.07
44309;BME280;30022;55.846;37.340;2023-04-27T08:39:15;47005.28;;;-143.51;87.95
44309;BME280;30022;55.846;37.340;2023-04-27T08:41:42;46951.97;;;-143.51;84.15
44309;BME280;30022;55.846;37.340;2023-04-27T08:44:08;46926.28;;;-143.51;83.05
44309;BME280;30022;55.846;37.340;2023-04-27T08:46:34;46944.06;;;-143.51;83.76
44309;BME280;30022;55.846;37.340;2023-04-27T08:49:01;46949.97;;;-143.51;84.67
44309;BME280;30022;55.846;37.340;2023-04-27T08:51:27;46930.22;;;-143.51;84.72
44309;BME280;30022;55.846;37.340;2023-04-27T08:53:53;46944.06;;;-143.51;84.20
44309;BME280;30022;55.846;37.340;2023-04-27T08:56:19;46920.34;;;-143.51;86.51
44309;BME280;30022;55.846;37.340;2023-04-27T08:58:47;46963.81;;;-143.51;84.64
44309;BME280;30022;55.846;37.340;2023-04-27T09:01:13;46971.72;;;-143.51;86.18
44309;BME280;30022;55.846;37.340;2023-04-27T09:03:39;46955.91;;;-143.51;86.96
44309;BME280;30022;55.846;37.340;2023-04-27T09:06:05;46957.88;;;-143.51;82.98
44309;BME280;30022;55.846;37.340;2023-04-27T09:08:47;46971.72;;;-143.51;86.58
44309;BME280;30022;55.846;37.340;2023-04-27T09:11:13;46965.78;;;-143.51;83.67
44309;BME280;30022;55.846;37.340;2023-04-27T09:13:40;46965.78;;;-143.51;81.52
44309;BME280;30022;55.846;37.340;2023-04-27T09:16:06;46991.47;;;-143.51;82.18
44309;BME280;30022;55.846;37.340;2023-04-27T09:18:34;47001.34;;;-143.51;84.71
44309;BME280;30022;55.846;37.340;2023-04-27T09:21:02;46995.41;;;-143.51;82.85
44309;BME280;30022;55.846;37.340;2023-04-27T09:23:32;46977.63;;;-143.51;82.49
44309;BME280;30022;55.846;37.340;2023-04-27T09:25:58;46983.56;;;-143.51;82.46
44309;BME280;30022;55.846;37.340;2023-04-27T09:28:25;46985.53;;;-143.51;80.04
44309;BME280;30022;55.846;37.340;2023-04-27T09:30:56;46995.41;;;-143.51;82.13
44309;BME280;30022;55.846;37.340;2023-04-27T09:33:22;46987.50;;;-143.51;81.47
44309;BME280;30022;55.846;37.340;2023-04-27T09:35:48;47017.13;;;-143.51;81.16
44309;BME280;30022;55.846;37.340;2023-04-27T09:38:15;47013.19;;;-143.51;80.42
44309;BME280;30022;55.846;37.340;2023-04-27T09:40:41;47044.78;;;-143.51;79.80
44309;BME280;30022;55.846;37.340;2023-04-27T09:43:07;47011.22;;;-143.51;77.48
44309;BME280;30022;55.846;37.340;2023-04-27T09:45:32;47017.13;;;-143.51;75.76
44309;BME280;30022;55.846;37.340;2023-04-27T09:47:58;47027.00;;;-143.51;72.68
44309;BME280;30022;55.846;37.340;2023-04-27T09:50:25;47025.03;;;-143.51;72.09
44309;BME280;30022;55.846;37.340;2023-04-27T09:52:50;47007.25;;;-143.51;68.18
44309;BME280;30022;55.846;37.340;2023-04-27T09:55:17;47017.13;;;-143.51;69.41
44309;BME280;30022;55.846;37.340;2023-04-27T09:57:57;47052.69;;;-143.51;68.82
44309;BME280;30022;55.846;37.340;2023-04-27T10:05:37;47013.19;;;-143.51;62.91
44309;BME280;30022;55.846;37.340;2023-04-27T10:08:05;47023.06;;;-143.51;61.16
44309;BME280;30022;55.846;37.340;2023-04-27T10:10:40;47030.97;;;-143.51;61.02
44309;BME280;30022;55.846;37.340;2023-04-27T10:13:06;47044.78;;;-143.51;61.81
44309;BME280;30022;55.846;37.340;2023-04-27T10:15:32;47027.00;;;-143.51;59.50
44309;BME280;30022;55.846;37.340;2023-04-27T10:18:04;47028.97;;;-143.51;61.33
44309;BME280;30022;55.846;37.340;2023-04-27T10:20:30;47038.84;;;-143.51;62.91
44309;BME280;30022;55.846;37.340;2023-04-27T10:22:57;47038.84;;;-143.51;64.38
44309;BME280;30022;55.846;37.340;2023-04-27T10:25:24;47005.28;;;-143.51;66.16
44309;BME280;30022;55.846;37.340;2023-04-27T10:27:51;46991.47;;;-143.51;67.24
44309;BME280;30022;55.846;37.340;2023-04-27T10:30:18;47028.97;;;-143.51;67.30
44309;BME280;30022;55.846;37.340;2023-04-27T10:32:51;47038.84;;;-143.51;68.58
44309;BME280;30022;55.846;37.340;2023-04-27T10:35:17;47013.19;;;-143.51;65.04
44309;BME280;30022;55.846;37.340;2023-04-27T10:37:43;47009.22;;;-143.51;65.15
44309;BME280;30022;55.846;37.340;2023-04-27T10:40:10;47011.22;;;-143.51;60.54
44309;BME280;30022;55.846;37.340;2023-04-27T10:42:39;47025.03;;;-143.51;61.22
44309;BME280;30022;55.846;37.340;2023-04-27T10:45:05;46989.47;;;-143.51;61.46
44309;BME280;30022;55.846;37.340;2023-04-27T10:47:37;47013.19;;;-143.51;63.52
44309;BME280;30022;55.846;37.340;2023-04-27T10:50:03;47030.97;;;-143.51;63.27
44309;BME280;30022;55.846;37.340;2023-04-27T10:52:29;47005.28;;;-143.51;63.72
44309;BME280;30022;55.846;37.340;2023-04-27T10:54:56;47040.84;;;-143.51;62.63
44309;BME280;30022;55.846;37.340;2023-04-27T10:57:21;47025.03;;;-143.51;62.23
44309;BME280;30022;55.846;37.340;2023-04-27T10:59:51;47046.75;;;-143.51;61.31
44309;BME280;30022;55.846;37.340;2023-04-27T11:02:23;47009.22;;;-143.51;62.00
44309;BME280;30022;55.846;37.340;2023-04-27T11:04:50;47048.72;;;-143.51;62.35
44309;BME280;30022;55.846;37.340;2023-04-27T11:07:22;47028.97;;;-143.51;62.61
44309;BME280;30022;55.846;37.340;2023-04-27T11:09:48;47025.03;;;-143.51;62.66
44309;BME280;30022;55.846;37.340;2023-04-27T11:12:13;47056.63;;;-143.51;61.23
44309;BME280;30022;55.846;37.340;2023-04-27T11:14:39;46985.53;;;-143.51;60.59
44309;BME280;30022;55.846;37.340;2023-04-27T11:17:05;46993.44;;;-143.51;61.16
44309;BME280;30022;55.846;37.340;2023-04-27T11:19:31;46993.44;;;-143.51;62.49
44309;BME280;30022;55.846;37.340;2023-04-27T11:22:03;47036.88;;;-143.51;62.06
44309;BME280;30022;55.846;37.340;2023-04-27T11:24:30;46995.41;;;-143.51;61.66
44309;BME280;30022;55.846;37.340;2023-04-27T11:26:56;47027.00;;;-143.51;62.29
44309;BME280;30022;55.846;37.340;2023-04-27T11:29:22;47042.81;;;-143.51;62.69
44309;BME280;30022;55.846;37.340;2023-04-27T11:31:48;47030.97;;;-143.51;62.35
44309;BME280;30022;55.846;37.340;2023-04-27T11:36:41;47013.19;;;-143.51;64.64
44309;BME280;30022;55.846;37.340;2023-04-27T11:39:07;47019.09;;;-143.51;64.56
44309;BME280;30022;55.846;37.340;2023-04-27T11:41:34;47028.97;;;-143.51;64.77
44309;BME280;30022;55.846;37.340;2023-04-27T11:44:04;47036.88;;;-143.51;63.02
44309;BME280;30022;55.846;37.340;2023-04-27T11:46:32;47013.19;;;-143.51;61.39
44309;BME280;30022;55.846;37.340;2023-04-27T11:49:04;46987.50;;;-143.51;62.37
44309;BME280;30022;55.846;37.340;2023-04-27T11:51:31;47011.22;;;-143.51;63.66
44309;BME280;30022;55.846;37.340;2023-04-27T11:54:06;46999.34;;;-143.51;63.75
44309;BME280;30022;55.846;37.340;2023-04-27T11:56:35;46969.72;;;-143.51;64.98
44309;BME280;30022;55.846;37.340;2023-04-27T11:59:01;46948.00;;;-143.51;65.10
44309;BME280;30022;55.846;37.340;2023-04-27T12:01:27;46953.94;;;-143.51;64.92
44309;BME280;30022;55.846;37.340;2023-04-27T12:03:53;46969.72;;;-143.51;64.70
44309;BME280;30022;55.846;37.340;2023-04-27T12:06:25;46991.47;;;-143.51;64.51
44309;BME280;30022;55.846;37.340;2023-04-27T12:08:51;47015.16;;;-143.51;62.64
44309;BME280;30022;55.846;37.340;2023-04-27T12:11:17;47015.16;;;-143.51;61.77
44309;BME280;30022;55.846;37.340;2023-04-27T12:13:42;47009.22;;;-143.51;61.71
44309;BME280;30022;55.846;37.340;2023-04-27T12:16:08;46993.44;;;-143.51;62.97
44309;BME280;30022;55.846;37.340;2023-04-27T12:18:34;46955.91;;;-143.51;62.96
44309;BME280;30022;55.846;37.340;2023-04-27T12:20:59;47003.31;;;-143.51;62.92
44309;BME280;30022;55.846;37.340;2023-04-27T12:23:25;46957.88;;;-143.51;61.71
44309;BME280;30022;55.846;37.340;2023-04-27T12:25:50;46975.66;;;-143.51;62.34